Time;durP1;ratioP1;P1;durP2;ratioP2;P2;SDS_P1;SDS_P2;PMS_P1;PMS_P2;Temp;Humidity;BMP_temperature;BMP_pressure;BME280_temperature;BME280_humidity;BME280_pressure;Samples;Min_cycle;Max_cycle;Signal;HPM_P1;HPM_P2
2022/09/08 00:00:13;;;;;;;;;;;;;;;15.78;100.00;101275.91;5036306;28;19979;-84
2022/09/08 00:02:41;;;;;;;;;;;;;;;15.99;100.00;101262.03;5045943;28;20046;-81
2022/09/08 00:05:09;;;;;;;;;;;;;;;15.93;100.00;101254.91;5048739;28;19921;-81
2022/09/08 00:07:38;;;;;;;;;;;;;;;15.91;100.00;101258.84;5040102;28;19975;-80
2022/09/08 00:10:05;;;;;;;;;;;;;;;15.94;100.00;101261.06;5044564;28;20266;-79
2022/09/08 00:12:34;;;;;;;;;;;;;;;15.93;100.00;101259.44;5047702;28;19929;-79
2022/09/08 00:15:01;;;;;;;;;;;;;;;16.05;100.00;101265.66;5038998;28;19924;-81
2022/09/08 00:17:29;;;;;;;;;;;;;;;15.84;100.00;101264.31;5047574;28;19929;-78
2022/09/08 00:19:57;;;;;;;;;;;;;;;15.82;100.00;101271.72;5039655;28;20376;-82
2022/09/08 00:22:24;;;;;;;;;;;;;;;15.63;100.00;101272.78;5042681;28;19925;-81
2022/09/08 00:24:50;;;;;;;;;;;;;;;15.54;100.00;101261.56;5045134;28;19921;-81
2022/09/08 00:27:17;;;;;;;;;;;;;;;15.75;100.00;101262.97;5037094;28;19929;-78
2022/09/08 00:29:44;;;;;;;;;;;;;;;15.61;100.00;101266.84;5043994;28;19990;-82
2022/09/08 00:32:11;;;;;;;;;;;;;;;15.45;100.00;101276.31;5042467;28;19975;-80
2022/09/08 00:34:39;;;;;;;;;;;;;;;15.63;100.00;101270.94;5039550;28;19921;-78
2022/09/08 00:37:06;;;;;;;;;;;;;;;15.50;100.00;101279.94;5044817;28;20352;-79
2022/09/08 00:39:33;;;;;;;;;;;;;;;15.24;100.00;101281.06;5044087;28;20280;-82
2022/09/08 00:42:00;;;;;;;;;;;;;;;15.25;100.00;101280.06;5045345;28;19921;-79
2022/09/08 00:44:39;;;;;;;;;;;;;;;15.70;100.00;101274.38;5048066;28;19950;-79
2022/09/08 00:47:07;;;;;;;;;;;;;;;15.55;100.00;101279.25;5042164;28;19925;-81
2022/09/08 00:49:35;;;;;;;;;;;;;;;15.34;100.00;101276.03;5046110;28;19928;-82
2022/09/08 00:52:03;;;;;;;;;;;;;;;15.43;100.00;101278.38;5038552;28;19982;-82
2022/09/08 00:54:30;;;;;;;;;;;;;;;15.66;100.00;101261.63;5044850;28;19983;-82
2022/09/08 00:56:58;;;;;;;;;;;;;;;15.58;100.00;101276.13;5037545;28;19990;-82
2022/09/08 00:59:26;;;;;;;;;;;;;;;15.62;100.00;101269.31;5045113;28;20546;-79
2022/09/08 01:01:53;;;;;;;;;;;;;;;15.60;100.00;101279.41;5049959;28;19982;-82
2022/09/08 01:04:22;;;;;;;;;;;;;;;15.60;100.00;101278.59;5040569;28;19925;-82
2022/09/08 01:12:46;;;;;;;;;;;;;;;15.56;100.00;101268.34;5043182;28;19927;-79
2022/09/08 01:15:15;;;;;;;;;;;;;;;15.85;100.00;101262.44;5035195;28;20266;-81
2022/09/08 01:17:42;;;;;;;;;;;;;;;15.45;100.00;101257.56;5049388;28;19920;-83
2022/09/08 01:20:10;;;;;;;;;;;;;;;15.53;100.00;101260.75;5047912;28;19925;-81
2022/09/08 01:22:53;;;;;;;;;;;;;;;15.41;100.00;101259.88;5048287;28;19920;-77
2022/09/08 01:25:30;;;;;;;;;;;;;;;15.51;100.00;101260.16;5037023;28;20026;-81
2022/09/08 01:28:03;;;;;;;;;;;;;;;15.34;100.00;101262.66;5045690;28;19920;-79
2022/09/08 01:30:32;;;;;;;;;;;;;;;15.65;100.00;101252.78;5035793;28;20343;-81
2022/09/08 01:33:00;;;;;;;;;;;;;;;15.44;100.00;101253.28;5043561;28;19921;-78
2022/09/08 01:35:29;;;;;;;;;;;;;;;15.55;100.00;101256.00;5038358;28;19927;-83
2022/09/08 01:37:56;;;;;;;;;;;;;;;15.43;100.00;101246.25;5047051;28;19995;-77
2022/09/08 01:40:23;;;;;;;;;;;;;;;15.53;100.00;101257.28;5042642;28;19921;-78
2022/09/08 01:42:50;;;;;;;;;;;;;;;15.46;100.00;101257.38;5047977;28;20001;-77
2022/09/08 01:45:19;;;;;;;;;;;;;;;15.00;100.00;101252.53;5037840;28;20451;-81
2022/09/08 01:47:47;;;;;;;;;;;;;;;15.17;100.00;101261.59;5051495;28;20335;-82
2022/09/08 01:50:14;;;;;;;;;;;;;;;15.21;100.00;101260.09;5046217;28;20365;-81
2022/09/08 01:52:40;;;;;;;;;;;;;;;15.18;100.00;101257.88;5049477;28;19921;-78
2022/09/08 01:55:07;;;;;;;;;;;;;;;15.21;100.00;101261.97;5052048;28;19955;-77
2022/09/08 01:57:34;;;;;;;;;;;;;;;14.67;100.00;101264.34;5046368;28;19921;-78
2022/09/08 02:00:00;;;;;;;;;;;;;;;15.14;100.00;101261.25;5039165;28;19928;-78
2022/09/08 02:02:28;;;;;;;;;;;;;;;15.07;100.00;101267.47;5170874;23;19982;-77
2022/09/08 02:04:55;;;;;;;;;;;;;;;14.91;100.00;101268.03;5054136;28;19986;-78
2022/09/08 02:07:21;;;;;;;;;;;;;;;14.78;100.00;101266.31;5054791;28;19921;-82
2022/09/08 02:09:48;;;;;;;;;;;;;;;14.68;100.00;101267.88;5046195;28;20427;-81
2022/09/08 02:12:14;;;;;;;;;;;;;;;14.83;100.00;101268.34;5050790;28;19924;-78
2022/09/08 02:14:41;;;;;;;;;;;;;;;14.81;100.00;101270.41;5048298;28;19925;-81
2022/09/08 02:17:08;;;;;;;;;;;;;;;14.73;100.00;101260.81;5056513;28;19931;-80
2022/09/08 02:19:36;;;;;;;;;;;;;;;14.55;100.00;101274.94;5056433;28;19994;-78
2022/09/08 02:22:02;;;;;;;;;;;;;;;14.55;100.00;101266.94;5056195;28;20447;-81
2022/09/08 02:24:33;;;;;;;;;;;;;;;14.43;100.00;101271.31;5057145;28;20356;-82
2022/09/08 02:27:00;;;;;;;;;;;;;;;14.58;100.00;101255.81;5055952;28;19974;-79
2022/09/08 02:29:26;;;;;;;;;;;;;;;14.57;100.00;101259.53;5056426;28;19924;-79
2022/09/08 02:31:54;;;;;;;;;;;;;;;13.97;100.00;101254.59;5056493;28;19920;-83
2022/09/08 02:34:22;;;;;;;;;;;;;;;14.08;100.00;101257.63;5056259;28;19920;-82
2022/09/08 02:36:50;;;;;;;;;;;;;;;13.94;100.00;101248.84;5057043;28;19971;-81
2022/09/08 02:39:17;;;;;;;;;;;;;;;13.96;100.00;101250.28;5056277;28;20351;-79
2022/09/08 02:41:44;;;;;;;;;;;;;;;13.94;100.00;101252.34;5056056;28;19983;-82
2022/09/08 02:44:12;;;;;;;;;;;;;;;14.01;100.00;101254.16;5055590;28;19920;-79
2022/09/08 02:46:41;;;;;;;;;;;;;;;13.93;100.00;101250.72;5056767;28;19920;-83
2022/09/08 02:49:09;;;;;;;;;;;;;;;14.28;100.00;101246.78;5055168;28;19998;-79
2022/09/08 02:51:37;;;;;;;;;;;;;;;14.29;100.00;101243.91;5055514;28;20391;-85
2022/09/08 02:54:07;;;;;;;;;;;;;;;14.08;100.00;101241.59;5054739;28;19931;-81
2022/09/08 02:56:34;;;;;;;;;;;;;;;14.16;100.00;101236.81;5047309;28;19932;-82
2022/09/08 02:59:00;;;;;;;;;;;;;;;14.28;100.00;101236.94;5054823;28;19921;-81
2022/09/08 03:01:27;;;;;;;;;;;;;;;14.16;100.00;101233.28;5050156;28;19921;-80
2022/09/08 03:03:53;;;;;;;;;;;;;;;14.01;100.00;101232.78;5053540;28;20361;-78
2022/09/08 03:06:20;;;;;;;;;;;;;;;14.25;100.00;101234.69;5055709;28;19928;-79
2022/09/08 03:08:47;;;;;;;;;;;;;;;14.21;100.00;101234.28;5054784;28;20361;-77
2022/09/08 03:11:16;;;;;;;;;;;;;;;14.31;100.00;101233.81;5055257;28;19921;-82
2022/09/08 03:13:43;;;;;;;;;;;;;;;14.39;100.00;101228.19;5053708;28;19921;-79
2022/09/08 03:16:10;;;;;;;;;;;;;;;14.26;100.00;101230.16;5053943;28;19925;-82
2022/09/08 03:18:37;;;;;;;;;;;;;;;14.21;100.00;101233.47;5048196;28;19925;-78
2022/09/08 03:21:05;;;;;;;;;;;;;;;14.16;100.00;101238.63;5047612;28;19982;-82
2022/09/08 03:23:32;;;;;;;;;;;;;;;14.25;100.00;101247.22;5041239;28;20357;-84
2022/09/08 03:26:01;;;;;;;;;;;;;;;13.95;100.00;101245.19;5055206;28;19943;-79
2022/09/08 03:28:29;;;;;;;;;;;;;;;14.05;100.00;101242.03;5055777;28;19920;-81
2022/09/08 03:30:56;;;;;;;;;;;;;;;14.13;100.00;101242.59;5054315;28;20380;-78
2022/09/08 03:33:22;;;;;;;;;;;;;;;14.28;100.00;101242.28;5055416;28;19943;-78
2022/09/08 03:35:51;;;;;;;;;;;;;;;13.52;100.00;101238.63;5056737;28;19925;-81
2022/09/08 03:38:18;;;;;;;;;;;;;;;13.61;100.00;101243.69;5054850;28;19928;-78
2022/09/08 03:40:46;;;;;;;;;;;;;;;13.68;100.00;101248.00;5057075;28;19924;-81
2022/09/08 03:43:13;;;;;;;;;;;;;;;13.66;100.00;101247.38;5056516;28;19984;-81
2022/09/08 03:45:45;;;;;;;;;;;;;;;13.32;100.00;101247.75;5056231;28;20364;-81
2022/09/08 03:48:14;;;;;;;;;;;;;;;13.42;100.00;101242.78;5044992;28;19928;-78
2022/09/08 03:50:40;;;;;;;;;;;;;;;13.60;100.00;101248.22;5042425;28;20447;-81
2022/09/08 03:53:07;;;;;;;;;;;;;;;13.26;100.00;101249.41;5058302;28;19928;-82
2022/09/08 03:55:34;;;;;;;;;;;;;;;13.44;100.00;101251.41;5053135;28;20300;-78
2022/09/08 03:58:01;;;;;;;;;;;;;;;13.81;100.00;101252.44;5049448;28;19924;-82
2022/09/08 04:00:28;;;;;;;;;;;;;;;13.95;100.00;101247.84;5057078;28;20281;-78
2022/09/08 04:02:56;;;;;;;;;;;;;;;14.08;100.00;101252.28;5056427;28;20368;-78
2022/09/08 04:05:23;;;;;;;;;;;;;;;13.94;100.00;101243.53;5056151;28;19920;-82
2022/09/08 04:07:51;;;;;;;;;;;;;;;13.86;100.00;101251.81;5058659;28;19921;-80
2022/09/08 04:10:19;;;;;;;;;;;;;;;13.67;100.00;101246.34;5056274;28;19921;-80
2022/09/08 04:12:45;;;;;;;;;;;;;;;13.83;100.00;101247.72;5056645;28;19925;-81
2022/09/08 04:15:12;;;;;;;;;;;;;;;14.10;100.00;101250.19;5055855;28;19986;-79
2022/09/08 04:17:39;;;;;;;;;;;;;;;14.19;100.00;101260.41;5055809;28;19925;-78
2022/09/08 04:20:07;;;;;;;;;;;;;;;14.28;100.00;101260.97;5054835;28;19975;-78
2022/09/08 04:22:34;;;;;;;;;;;;;;;14.37;100.00;101259.66;5054933;28;19920;-78
2022/09/08 04:25:02;;;;;;;;;;;;;;;14.69;100.00;101256.13;5054573;28;19943;-78
2022/09/08 04:27:28;;;;;;;;;;;;;;;14.54;100.00;101262.63;5046927;28;20015;-80
2022/09/08 04:29:57;;;;;;;;;;;;;;;14.76;100.00;101263.03;5054215;28;19952;-81
2022/09/08 04:32:24;;;;;;;;;;;;;;;14.87;100.00;101261.50;5054814;28;19979;-78
2022/09/08 04:34:51;;;;;;;;;;;;;;;14.94;100.00;101264.94;5048128;28;19921;-80
2022/09/08 04:37:20;;;;;;;;;;;;;;;14.90;100.00;101269.09;5049774;28;20357;-80
2022/09/08 04:39:48;;;;;;;;;;;;;;;14.55;100.00;101264.25;5049335;28;19952;-78
2022/09/08 04:42:15;;;;;;;;;;;;;;;15.13;100.00;101271.13;5057453;28;19921;-78
2022/09/08 04:44:42;;;;;;;;;;;;;;;15.44;100.00;101269.34;5053824;28;20410;-78
2022/09/08 04:47:08;;;;;;;;;;;;;;;15.67;100.00;101269.47;5046573;28;19991;-79
2022/09/08 04:49:35;;;;;;;;;;;;;;;15.85;100.00;101271.28;5038508;28;19925;-80
2022/09/08 04:52:02;;;;;;;;;;;;;;;16.05;100.00;101257.63;5040073;28;19921;-79
2022/09/08 04:54:30;;;;;;;;;;;;;;;16.22;100.00;101260.47;5047293;28;20345;-81
2022/09/08 04:56:57;;;;;;;;;;;;;;;16.42;100.00;101273.53;5046537;28;19994;-79
2022/09/08 04:59:25;;;;;;;;;;;;;;;16.61;100.00;101264.34;5048257;28;19990;-79
2022/09/08 05:02:06;;;;;;;;;;;;;;;16.27;100.00;101269.41;5043744;28;19943;-80
2022/09/08 05:04:33;;;;;;;;;;;;;;;16.63;100.00;101274.84;5047528;28;19921;-79
2022/09/08 05:06:59;;;;;;;;;;;;;;;16.71;100.00;101274.50;5047008;28;20407;-79
2022/09/08 05:09:26;;;;;;;;;;;;;;;17.01;100.00;101274.41;5047421;28;19933;-79
2022/09/08 05:11:54;;;;;;;;;;;;;;;17.00;100.00;101272.75;5048209;28;19921;-78
2022/09/08 05:14:20;;;;;;;;;;;;;;;17.14;100.00;101282.19;5053383;28;19921;-77
2022/09/08 05:16:47;;;;;;;;;;;;;;;17.26;100.00;101284.84;5057213;28;19925;-80
2022/09/08 05:19:13;;;;;;;;;;;;;;;17.30;100.00;101277.94;5059800;28;19920;-79
2022/09/08 05:21:40;;;;;;;;;;;;;;;17.23;100.00;101289.88;5056371;28;20007;-77
2022/09/08 05:24:07;;;;;;;;;;;;;;;17.38;100.00;101282.97;5059736;28;19920;-78
2022/09/08 05:26:33;;;;;;;;;;;;;;;17.51;100.00;101286.44;5058857;28;19947;-78
2022/09/08 05:29:03;;;;;;;;;;;;;;;17.79;100.00;101282.97;5049304;28;19933;-79
2022/09/08 05:31:32;;;;;;;;;;;;;;;17.79;100.00;101286.50;5059860;28;19978;-80
2022/09/08 05:33:59;;;;;;;;;;;;;;;17.99;100.00;101288.72;5058721;28;19928;-80
2022/09/08 05:36:26;;;;;;;;;;;;;;;18.24;100.00;101282.16;5060976;28;19947;-80
2022/09/08 05:38:54;;;;;;;;;;;;;;;18.29;100.00;101279.56;5055266;28;19982;-81
2022/09/08 05:41:21;;;;;;;;;;;;;;;18.44;100.00;101290.56;5057285;28;20307;-78
2022/09/08 05:43:51;;;;;;;;;;;;;;;18.58;100.00;101292.94;5057015;28;20332;-80
2022/09/08 05:46:19;;;;;;;;;;;;;;;18.52;100.00;101295.56;5057510;28;19924;-78
2022/09/08 05:48:46;;;;;;;;;;;;;;;18.73;100.00;101293.22;5058512;28;19929;-79
2022/09/08 05:51:14;;;;;;;;;;;;;;;19.03;100.00;101294.69;5057723;28;20015;-80
2022/09/08 05:53:40;;;;;;;;;;;;;;;19.12;100.00;101287.81;5056475;28;19928;-77
2022/09/08 05:56:09;;;;;;;;;;;;;;;19.12;100.00;101288.66;5058490;28;19920;-83
2022/09/08 05:58:36;;;;;;;;;;;;;;;19.34;100.00;101290.56;5056815;28;20015;-78
2022/09/08 06:01:04;;;;;;;;;;;;;;;19.40;100.00;101287.66;5054750;28;20011;-78
2022/09/08 06:03:32;;;;;;;;;;;;;;;19.71;100.00;101287.22;5055496;28;19980;-78
2022/09/08 06:06:03;;;;;;;;;;;;;;;19.81;100.00;101284.63;5057486;28;19932;-78
2022/09/08 06:08:29;;;;;;;;;;;;;;;19.99;100.00;101278.09;5057938;28;20019;-78
2022/09/08 06:10:56;;;;;;;;;;;;;;;20.17;100.00;101275.00;5056666;28;19925;-80
2022/09/08 06:13:22;;;;;;;;;;;;;;;20.34;100.00;101273.00;5057226;28;19974;-78
2022/09/08 06:15:50;;;;;;;;;;;;;;;20.64;100.00;101270.84;5056246;28;19990;-80
2022/09/08 06:18:16;;;;;;;;;;;;;;;20.65;100.00;101277.84;5057007;28;19921;-79
2022/09/08 06:20:45;;;;;;;;;;;;;;;20.59;100.00;101280.50;5056563;28;19974;-80
2022/09/08 06:23:11;;;;;;;;;;;;;;;20.97;100.00;101288.59;5055536;28;20007;-77
2022/09/08 06:25:43;;;;;;;;;;;;;;;21.11;100.00;101278.91;5056081;28;19925;-79
2022/09/08 06:28:25;;;;;;;;;;;;;;;21.02;100.00;101278.59;5051757;28;19925;-79
2022/09/08 06:30:51;;;;;;;;;;;;;;;21.14;100.00;101283.81;5049307;28;19991;-80
2022/09/08 06:33:22;;;;;;;;;;;;;;;21.25;100.00;101288.19;5048906;28;20347;-78
2022/09/08 06:35:54;;;;;;;;;;;;;;;21.39;100.00;101288.56;5046839;28;19931;-77
2022/09/08 06:38:25;;;;;;;;;;;;;;;21.60;100.00;101288.59;5050934;28;19987;-79
2022/09/08 06:40:59;;;;;;;;;;;;;;;21.54;100.00;101285.06;5046033;28;20377;-77
2022/09/08 06:43:29;;;;;;;;;;;;;;;21.97;100.00;101277.63;5048658;28;19994;-78
2022/09/08 06:45:57;;;;;;;;;;;;;;;21.99;100.00;101288.97;5047935;28;19987;-81
2022/09/08 06:48:27;;;;;;;;;;;;;;;22.28;100.00;101288.50;5047737;28;19924;-77
2022/09/08 06:51:02;;;;;;;;;;;;;;;22.57;100.00;101284.16;5046715;28;19974;-77
2022/09/08 06:53:33;;;;;;;;;;;;;;;22.92;100.00;101276.22;5045033;28;20362;-79
2022/09/08 06:56:02;;;;;;;;;;;;;;;23.08;100.00;101280.53;5048465;28;20003;-80
2022/09/08 06:58:30;;;;;;;;;;;;;;;23.15;100.00;101283.78;5045674;28;19959;-78
2022/09/08 07:00:59;;;;;;;;;;;;;;;23.49;100.00;101288.50;5047580;28;19978;-81
2022/09/08 07:03:32;;;;;;;;;;;;;;;23.49;100.00;101291.22;5046387;28;20366;-78
2022/09/08 07:06:05;;;;;;;;;;;;;;;23.75;100.00;101286.47;5045903;28;20320;-82
2022/09/08 07:08:39;;;;;;;;;;;;;;;23.81;100.00;101290.78;5045664;28;19978;-78
2022/09/08 07:11:13;;;;;;;;;;;;;;;23.69;100.00;101293.00;5045077;28;20361;-81
2022/09/08 07:13:46;;;;;;;;;;;;;;;24.18;100.00;101292.19;5051809;28;19983;-79
2022/09/08 07:16:15;;;;;;;;;;;;;;;24.15;100.00;101293.56;5054998;28;20339;-79
2022/09/08 07:18:45;;;;;;;;;;;;;;;24.22;100.00;101295.94;5054139;28;19947;-78
2022/09/08 07:21:21;;;;;;;;;;;;;;;24.58;100.00;101291.03;5054500;28;19971;-81
2022/09/08 07:23:48;;;;;;;;;;;;;;;24.78;100.00;101287.31;5054951;28;19956;-78
2022/09/08 07:26:20;;;;;;;;;;;;;;;24.69;100.00;101297.19;5045975;28;19928;-81
2022/09/08 07:28:49;;;;;;;;;;;;;;;24.80;100.00;101293.25;5053802;28;19924;-78
2022/09/08 07:31:18;;;;;;;;;;;;;;;25.35;100.00;101288.31;5054631;28;19974;-78
2022/09/08 07:33:46;;;;;;;;;;;;;;;25.34;100.00;101297.56;5053864;28;19979;-79
2022/09/08 07:36:16;;;;;;;;;;;;;;;25.06;98.28;101295.72;5046839;28;19998;-81
2022/09/08 07:38:46;;;;;;;;;;;;;;;25.24;92.23;101297.72;5052452;28;20327;-77
2022/09/08 07:41:28;;;;;;;;;;;;;;;25.58;98.87;101294.81;5043328;28;19921;-80
2022/09/08 07:43:59;;;;;;;;;;;;;;;25.70;96.99;101291.66;5050589;28;19920;-80
2022/09/08 07:46:32;;;;;;;;;;;;;;;25.94;97.92;101294.34;5055207;28;19978;-81
2022/09/08 07:49:04;;;;;;;;;;;;;;;26.08;92.56;101296.28;5054667;28;19929;-81
2022/09/08 07:51:34;;;;;;;;;;;;;;;26.24;83.91;101292.25;5054887;28;19932;-79
2022/09/08 07:54:08;;;;;;;;;;;;;;;26.60;90.55;101288.94;5049851;28;19921;-82
2022/09/08 07:56:40;;;;;;;;;;;;;;;26.70;82.53;101295.00;5053382;28;19982;-82
2022/09/08 07:59:16;;;;;;;;;;;;;;;26.87;86.23;101294.41;5053625;28;19927;-79
2022/09/08 08:01:48;;;;;;;;;;;;;;;26.88;80.06;101292.50;5053478;28;20360;-80
2022/09/08 08:04:31;;;;;;;;;;;;;;;27.17;77.16;101284.03;5054801;28;19921;-79
2022/09/08 08:07:03;;;;;;;;;;;;;;;27.54;67.29;101285.72;5054459;28;19994;-79
2022/09/08 08:09:35;;;;;;;;;;;;;;;27.00;65.62;101278.38;5054085;28;19928;-81
2022/09/08 08:12:06;;;;;;;;;;;;;;;27.47;67.65;101279.84;5042092;28;19920;-83
2022/09/08 08:14:37;;;;;;;;;;;;;;;27.62;58.81;101275.97;5046783;28;19921;-82
2022/09/08 08:17:14;;;;;;;;;;;;;;;27.82;62.96;101277.47;5041053;28;19956;-81
2022/09/08 08:19:52;;;;;;;;;;;;;;;27.63;54.77;101280.34;5045940;28;19929;-81
2022/09/08 08:22:25;;;;;;;;;;;;;;;27.55;52.39;101276.41;5045880;28;20419;-79
2022/09/08 08:24:59;;;;;;;;;;;;;;;27.45;51.35;101271.19;5040841;28;19990;-79
2022/09/08 08:27:29;;;;;;;;;;;;;;;27.52;52.73;101271.56;5046803;28;19925;-82
2022/09/08 08:30:02;;;;;;;;;;;;;;;27.89;50.78;101269.66;5046536;28;19921;-81
2022/09/08 08:32:32;;;;;;;;;;;;;;;28.06;51.94;101264.31;5044530;28;20377;-79
2022/09/08 08:35:02;;;;;;;;;;;;;;;28.52;54.86;101262.38;5042939;28;19921;-79
2022/09/08 08:37:31;;;;;;;;;;;;;;;28.27;51.90;101261.09;5048150;28;19982;-78
2022/09/08 08:39:59;;;;;;;;;;;;;;;28.50;51.53;101259.13;5054233;28;19966;-81
2022/09/08 08:42:36;;;;;;;;;;;;;;;28.69;53.52;101261.66;5053877;28;19972;-79
2022/09/08 08:45:11;;;;;;;;;;;;;;;28.82;45.32;101252.53;5053043;28;19927;-81
2022/09/08 08:47:49;;;;;;;;;;;;;;;29.05;47.03;101250.56;5057994;28;20331;-81
2022/09/08 08:50:34;;;;;;;;;;;;;;;29.25;45.38;101248.31;5057365;28;19924;-83
2022/09/08 08:53:21;;;;;;;;;;;;;;;28.97;50.14;101243.09;5058217;28;19920;-77
2022/09/08 08:55:58;;;;;;;;;;;;;;;29.16;49.02;101231.91;5057820;28;19947;-77
2022/09/08 08:58:37;;;;;;;;;;;;;;;29.71;45.29;101230.50;5057550;28;19927;-81
2022/09/08 09:01:10;;;;;;;;;;;;;;;29.21;49.38;101227.09;5057642;28;19947;-79
2022/09/08 09:03:46;;;;;;;;;;;;;;;30.06;45.58;101234.81;5055991;28;20376;-76
2022/09/08 09:06:28;;;;;;;;;;;;;;;30.26;46.52;101230.63;5055600;28;20238;-78
2022/09/08 09:11:59;;;;;;;;;;;;;;;29.94;43.17;101221.00;5047569;28;19990;-79
2022/09/08 09:14:48;;;;;;;;;;;;;;;30.22;43.43;101221.44;5047819;28;19928;-82
2022/09/08 09:17:24;;;;;;;;;;;;;;;30.32;50.94;101220.28;5057580;28;19921;-78
2022/09/08 09:20:17;;;;;;;;;;;;;;;30.40;46.54;101210.41;5057358;28;19925;-83
2022/09/08 09:22:48;;;;;;;;;;;;;;;30.61;44.97;101205.81;5057925;28;19921;-77
2022/09/08 09:25:22;;;;;;;;;;;;;;;30.82;45.96;101205.09;5057041;28;19930;-77
2022/09/08 09:27:57;;;;;;;;;;;;;;;30.38;45.50;101202.53;5057656;28;20348;-78
2022/09/08 09:30:28;;;;;;;;;;;;;;;30.69;46.90;101199.50;5053513;28;19920;-81
2022/09/08 09:33:16;;;;;;;;;;;;;;;31.55;42.50;101200.06;5056550;28;20347;-80
2022/09/08 09:35:58;;;;;;;;;;;;;;;31.65;41.68;101198.84;5032077;28;19920;-79
2022/09/08 09:38:39;;;;;;;;;;;;;;;31.02;41.96;101193.38;5056792;28;19996;-81
2022/09/08 09:41:25;;;;;;;;;;;;;;;31.64;42.73;101197.25;5043704;28;19920;-80
2022/09/08 09:44:00;;;;;;;;;;;;;;;31.39;40.69;101197.13;5056262;28;19924;-80
2022/09/08 09:46:41;;;;;;;;;;;;;;;30.66;44.80;101194.66;5055347;28;19921;-79
2022/09/08 09:49:21;;;;;;;;;;;;;;;30.68;49.62;101194.31;5023087;28;19924;-77
2022/09/08 09:52:01;;;;;;;;;;;;;;;31.93;42.28;101188.13;5054275;28;20297;-78
2022/09/08 09:54:34;;;;;;;;;;;;;;;31.89;44.79;101187.13;5053582;28;20315;-81
2022/09/08 09:57:20;;;;;;;;;;;;;;;32.56;39.98;101183.19;5056522;28;20002;-84
2022/09/08 10:00:03;;;;;;;;;;;;;;;32.33;40.92;101188.28;5054997;28;19955;-78
2022/09/08 10:06:11;;;;;;;;;;;;;;;32.52;39.11;101181.44;4989312;28;20382;-81
2022/09/08 10:08:51;;;;;;;;;;;;;;;32.11;39.34;101191.47;4917015;29;19923;-78
2022/09/08 10:11:35;;;;;;;;;;;;;;;32.60;36.68;101178.59;4913901;29;19930;-77
2022/09/08 10:14:13;;;;;;;;;;;;;;;33.47;43.32;101168.22;4968018;28;20299;-81
2022/09/08 10:16:58;;;;;;;;;;;;;;;31.58;41.42;101176.63;4995101;28;19922;-78
2022/09/08 10:19:42;;;;;;;;;;;;;;;32.52;38.45;101171.25;4994764;28;19928;-78
2022/09/08 10:22:30;;;;;;;;;;;;;;;32.49;38.38;101168.38;4994181;28;20378;-81
2022/09/08 10:25:15;;;;;;;;;;;;;;;32.68;35.31;101174.13;4994780;28;19983;-81
2022/09/08 10:28:06;;;;;;;;;;;;;;;33.28;34.21;101164.16;5005390;28;20384;-78
2022/09/08 10:30:51;;;;;;;;;;;;;;;33.43;33.42;101159.84;5051258;28;19931;-77
2022/09/08 10:33:32;;;;;;;;;;;;;;;33.77;34.55;101151.31;5042326;28;19928;-77
2022/09/08 10:36:02;;;;;;;;;;;;;;;33.42;33.72;101155.50;5047893;28;19925;-78
2022/09/08 10:38:45;;;;;;;;;;;;;;;33.34;31.39;101153.69;5051293;28;20311;-82
2022/09/08 10:41:27;;;;;;;;;;;;;;;32.93;32.83;101155.63;5055882;28;19920;-78
2022/09/08 10:44:08;;;;;;;;;;;;;;;33.35;31.55;101146.25;5048523;28;19978;-77
2022/09/08 10:46:52;;;;;;;;;;;;;;;30.78;36.84;101150.94;5046557;28;20281;-81
2022/09/08 10:49:45;;;;;;;;;;;;;;;32.78;33.38;101148.09;5047138;28;20340;-77
2022/09/08 10:52:26;;;;;;;;;;;;;;;33.92;31.85;101145.03;5056073;28;19921;-82
2022/09/08 10:55:09;;;;;;;;;;;;;;;32.72;32.95;101144.78;5055078;28;19925;-82
2022/09/08 10:57:47;;;;;;;;;;;;;;;31.72;36.71;101146.94;5055712;28;19974;-78
2022/09/08 11:00:22;;;;;;;;;;;;;;;33.31;32.48;101132.38;5054911;28;19988;-77
2022/09/08 11:03:03;;;;;;;;;;;;;;;32.77;37.17;101133.56;5054792;28;19920;-78
2022/09/08 11:05:42;;;;;;;;;;;;;;;33.60;31.55;101130.44;5055464;28;20327;-82
2022/09/08 11:08:36;;;;;;;;;;;;;;;33.92;30.18;101129.31;5054721;28;19921;-77
2022/09/08 11:11:09;;;;;;;;;;;;;;;32.14;36.30;101125.66;5052465;28;20019;-78
2022/09/08 11:13:40;;;;;;;;;;;;;;;33.10;33.59;101116.03;5050866;28;19990;-77
2022/09/08 11:16:15;;;;;;;;;;;;;;;33.60;34.19;101122.19;5054932;28;20015;-81
2022/09/08 11:18:57;;;;;;;;;;;;;;;33.94;35.02;101118.72;5054484;28;19921;-80
2022/09/08 11:21:29;;;;;;;;;;;;;;;34.38;31.43;101110.38;5054920;28;19983;-80
2022/09/08 11:24:04;;;;;;;;;;;;;;;34.03;33.50;101113.06;5055260;28;19938;-77
2022/09/08 11:26:41;;;;;;;;;;;;;;;33.14;32.35;101105.97;5054703;28;20411;-79
2022/09/08 11:29:10;;;;;;;;;;;;;;;34.55;33.63;101100.13;5054632;28;19978;-79
2022/09/08 11:31:54;;;;;;;;;;;;;;;34.07;34.27;101104.88;5054879;28;20377;-77
2022/09/08 11:34:42;;;;;;;;;;;;;;;32.19;37.48;101090.84;5054080;28;19921;-81
2022/09/08 11:37:27;;;;;;;;;;;;;;;33.09;33.21;101097.16;5051052;28;19921;-81
2022/09/08 11:40:05;;;;;;;;;;;;;;;33.20;31.66;101092.75;5052104;28;19933;-82
2022/09/08 11:42:50;;;;;;;;;;;;;;;33.53;31.72;101098.00;5054470;28;19924;-79
2022/09/08 11:45:25;;;;;;;;;;;;;;;33.59;32.38;101093.84;5052515;28;19925;-82
2022/09/08 11:48:01;;;;;;;;;;;;;;;34.03;31.26;101088.28;5053946;28;19971;-80
2022/09/08 11:50:38;;;;;;;;;;;;;;;33.80;30.39;101090.03;5052873;28;19921;-77
2022/09/08 11:53:29;;;;;;;;;;;;;;;34.23;30.70;101091.91;5049385;28;19928;-77
2022/09/08 11:56:10;;;;;;;;;;;;;;;33.90;29.31;101086.75;4997798;28;19921;-78
2022/09/08 11:58:42;;;;;;;;;;;;;;;34.45;33.20;101084.91;5053411;28;20361;-80
2022/09/08 12:01:26;;;;;;;;;;;;;;;34.68;31.53;101075.97;5050355;28;19979;-80
2022/09/08 12:04:01;;;;;;;;;;;;;;;34.62;29.55;101070.75;5037723;28;19983;-79
2022/09/08 12:06:46;;;;;;;;;;;;;;;34.29;31.61;101071.19;5047739;28;20004;-77
2022/09/08 12:09:24;;;;;;;;;;;;;;;35.12;28.02;101064.69;5053381;28;20003;-78
2022/09/08 12:12:06;;;;;;;;;;;;;;;34.24;33.68;101070.66;5052570;28;19928;-80
2022/09/08 12:14:41;;;;;;;;;;;;;;;34.54;28.89;101068.22;5053534;28;19928;-78
2022/09/08 12:17:17;;;;;;;;;;;;;;;35.15;28.20;101064.75;5053979;28;20324;-81
2022/09/08 12:19:54;;;;;;;;;;;;;;;35.47;28.67;101056.28;5049793;28;19925;-77
2022/09/08 12:22:35;;;;;;;;;;;;;;;34.50;28.57;101059.03;5045988;28;19931;-77
2022/09/08 12:25:21;;;;;;;;;;;;;;;35.43;30.05;101053.44;5044063;28;19936;-80
2022/09/08 12:27:56;;;;;;;;;;;;;;;35.57;28.13;101047.41;5042637;28;19927;-80
2022/09/08 12:30:27;;;;;;;;;;;;;;;36.32;28.37;101053.34;5042720;28;19920;-80
2022/09/08 12:33:19;;;;;;;;;;;;;;;35.36;30.74;101047.78;5042410;28;19925;-81
2022/09/08 12:35:50;;;;;;;;;;;;;;;35.30;30.74;101043.72;5033629;28;19931;-77
2022/09/08 12:38:40;;;;;;;;;;;;;;;34.41;32.38;101040.75;5052848;28;20360;-78
2022/09/08 12:41:23;;;;;;;;;;;;;;;35.66;31.39;101038.88;5051347;28;19928;-80
2022/09/08 12:43:59;;;;;;;;;;;;;;;34.18;31.00;101035.09;5032118;28;19925;-80
2022/09/08 12:46:41;;;;;;;;;;;;;;;35.02;32.44;101038.47;5047171;28;20011;-80
2022/09/08 12:49:27;;;;;;;;;;;;;;;34.42;30.81;101030.50;5047264;28;19935;-76
2022/09/08 12:51:55;;;;;;;;;;;;;;;35.94;32.21;101024.69;5045996;28;19925;-81
2022/09/08 12:54:33;;;;;;;;;;;;;;;36.13;30.46;101026.59;5044875;28;19987;-80
2022/09/08 12:57:19;;;;;;;;;;;;;;;35.69;26.76;101024.31;5046449;28;19931;-80
2022/09/08 13:00:11;;;;;;;;;;;;;;;35.35;27.54;101023.31;5052643;28;19921;-78
2022/09/08 13:02:50;;;;;;;;;;;;;;;35.50;28.44;101022.41;5052684;28;19921;-81
2022/09/08 13:05:50;;;;;;;;;;;;;;;35.95;27.79;101027.09;5047882;28;19921;-81
2022/09/08 13:08:33;;;;;;;;;;;;;;;35.80;26.46;101025.28;4982270;28;19930;-77